createdAt,value
2023-04-09T00:00:49.184Z,20.62
2023-04-09T00:01:49.281Z,20.62
2023-04-09T00:02:49.389Z,20.62
2023-04-09T00:03:49.467Z,20.62
2023-04-09T00:04:49.499Z,20.62
2023-04-09T00:05:49.524Z,20.62
2023-04-09T00:06:49.595Z,20.62
2023-04-09T00:07:49.656Z,20.62
2023-04-09T00:08:49.885Z,20.62
2023-04-09T00:09:49.743Z,20.62
2023-04-09T00:10:49.809Z,20.61
2023-04-09T00:11:49.933Z,20.61
2023-04-09T00:12:49.945Z,20.61
2023-04-09T00:13:49.984Z,20.61
2023-04-09T00:14:50.060Z,20.60
2023-04-09T00:15:50.123Z,20.61
2023-04-09T00:16:50.194Z,20.60
2023-04-09T00:17:50.319Z,20.60
2023-04-09T00:18:50.452Z,20.60
2023-04-09T00:19:50.334Z,20.60
2023-04-09T00:20:50.416Z,20.60
2023-04-09T00:21:50.485Z,20.60
2023-04-09T00:22:50.570Z,20.60
2023-04-09T00:23:51.492Z,20.60
2023-04-09T00:24:50.694Z,20.59
2023-04-09T00:25:50.732Z,20.59
2023-04-09T00:26:50.783Z,20.59
2023-04-09T00:27:50.859Z,20.59
2023-04-09T00:28:51.139Z,20.59
2023-04-09T00:29:51.005Z,20.59
2023-04-09T00:30:51.002Z,20.59
2023-04-09T00:31:51.123Z,20.59
2023-04-09T00:32:51.178Z,20.58
2023-04-09T00:33:51.231Z,20.58
2023-04-09T00:34:51.241Z,20.58
2023-04-09T00:35:51.408Z,20.58
2023-04-09T00:36:51.380Z,20.58
2023-04-09T00:37:52.005Z,20.58
2023-04-09T00:38:51.840Z,20.57
2023-04-09T00:39:51.527Z,20.58
2023-04-09T00:40:51.597Z,20.58
2023-04-09T00:41:51.627Z,20.57
2023-04-09T00:42:51.693Z,20.58
2023-04-09T00:43:51.785Z,20.57
2023-04-09T00:44:51.837Z,20.57
2023-04-09T00:45:51.882Z,20.57
2023-04-09T00:46:51.869Z,20.57
2023-04-09T00:47:52.027Z,20.57
2023-04-09T00:48:52.260Z,20.57
2023-04-09T00:49:52.123Z,20.57
2023-04-09T00:50:52.154Z,20.57
2023-04-09T00:51:52.190Z,20.57
2023-04-09T00:52:52.237Z,20.57
2023-04-09T00:53:52.299Z,20.56
2023-04-09T00:54:52.381Z,20.56
2023-04-09T00:55:52.401Z,20.56
2023-04-09T00:56:52.470Z,20.55
2023-04-09T00:57:52.529Z,20.55
2023-04-09T00:58:52.816Z,20.56
2023-04-09T00:59:52.618Z,20.55
2023-04-09T01:00:52.742Z,20.56
2023-04-09T01:01:52.721Z,20.55
2023-04-09T01:02:52.777Z,20.55
2023-04-09T01:03:52.824Z,20.55
2023-04-09T01:04:52.760Z,20.55
2023-04-09T01:05:52.799Z,20.55
2023-04-09T01:06:52.858Z,20.55
2023-04-09T01:07:52.914Z,20.55
2023-04-09T01:08:53.061Z,20.55
2023-04-09T01:09:53.037Z,20.55
2023-04-09T01:10:53.028Z,20.54
2023-04-09T01:11:53.105Z,20.55
2023-04-09T01:12:53.130Z,20.53
2023-04-09T01:13:53.129Z,20.53
2023-04-09T01:14:53.197Z,20.54
2023-04-09T01:15:53.216Z,20.54
2023-04-09T01:16:53.370Z,20.54
2023-04-09T01:17:53.351Z,20.54
2023-04-09T01:18:53.534Z,20.53
2023-04-09T01:19:53.363Z,20.54
2023-04-09T01:20:53.421Z,20.53
2023-04-09T01:21:53.460Z,20.53
2023-04-09T01:22:53.486Z,20.53
2023-04-09T01:23:53.547Z,20.53
2023-04-09T01:24:53.619Z,20.54
2023-04-09T01:25:53.662Z,20.53
2023-04-09T01:26:53.685Z,20.53
2023-04-09T01:27:53.694Z,20.52
2023-04-09T01:28:54.332Z,20.52
2023-04-09T01:29:53.805Z,20.52
2023-04-09T01:30:53.917Z,20.52
2023-04-09T01:31:53.873Z,20.52
2023-04-09T01:32:53.991Z,20.52
2023-04-09T01:33:53.977Z,20.51
2023-04-09T01:34:53.982Z,20.52
2023-04-09T01:35:56.598Z,20.51
2023-04-09T01:36:54.222Z,20.51
2023-04-09T01:37:54.220Z,20.51
2023-04-09T01:38:54.542Z,20.51
2023-04-09T01:39:54.328Z,20.52
2023-04-09T01:40:54.352Z,20.51
2023-04-09T01:41:54.373Z,20.52
2023-04-09T01:42:54.437Z,20.51
2023-04-09T01:43:54.479Z,20.51
2023-04-09T01:44:54.502Z,20.51
2023-04-09T01:45:54.626Z,20.50
2023-04-09T01:46:54.572Z,20.51
2023-04-09T01:47:54.708Z,20.50
2023-04-09T01:48:54.855Z,20.50
2023-04-09T01:49:54.720Z,20.51
2023-04-09T01:50:54.757Z,20.50
2023-04-09T01:51:54.757Z,20.50
2023-04-09T01:52:54.841Z,20.50
2023-04-09T01:53:54.896Z,20.50
2023-04-09T01:54:54.907Z,20.50
2023-04-09T01:55:54.929Z,20.49
2023-04-09T01:56:54.953Z,20.50
2023-04-09T01:57:55.027Z,20.50
2023-04-09T01:58:55.210Z,20.49
2023-04-09T01:59:55.131Z,20.50
2023-04-09T02:00:55.085Z,20.50
2023-04-09T02:01:55.229Z,20.49
2023-04-09T02:02:55.249Z,20.49
2023-04-09T02:03:55.364Z,20.50
2023-04-09T02:04:55.095Z,20.49
2023-04-09T02:05:55.129Z,20.50
2023-04-09T02:06:55.131Z,20.49
2023-04-09T02:07:55.096Z,20.49
2023-04-09T02:08:55.136Z,20.49
2023-04-09T02:09:55.149Z,20.49
2023-04-09T02:10:55.162Z,20.48
2023-04-09T02:11:55.139Z,20.48
2023-04-09T02:12:55.205Z,20.49
2023-04-09T02:13:55.299Z,20.48
2023-04-09T02:14:55.293Z,20.48
2023-04-09T02:15:55.587Z,20.48
2023-04-09T02:16:55.382Z,20.48
2023-04-09T02:17:55.507Z,20.49
2023-04-09T02:18:55.519Z,20.48
2023-04-09T02:19:55.528Z,20.48
2023-04-09T02:20:55.582Z,20.48
2023-04-09T02:21:55.559Z,20.47
2023-04-09T02:22:55.649Z,20.48
2023-04-09T02:23:55.724Z,20.46
2023-04-09T02:24:55.733Z,20.47
2023-04-09T02:25:55.814Z,20.47
2023-04-09T02:26:55.826Z,20.46
2023-04-09T02:27:55.880Z,20.47
2023-04-09T02:28:55.967Z,20.46
2023-04-09T02:29:55.959Z,20.46
2023-04-09T02:30:56.044Z,20.46
2023-04-09T02:31:56.124Z,20.46
2023-04-09T02:32:56.158Z,20.46
2023-04-09T02:33:56.184Z,20.46
2023-04-09T02:34:56.236Z,20.47
2023-04-09T02:35:56.264Z,20.46
2023-04-09T02:36:56.339Z,20.46
2023-04-09T02:37:56.333Z,20.46
2023-04-09T02:38:56.462Z,20.46
2023-04-09T02:39:56.490Z,20.45
2023-04-09T02:40:56.563Z,20.46
2023-04-09T02:41:56.552Z,20.45
2023-04-09T02:42:56.595Z,20.45
2023-04-09T02:43:56.658Z,20.45
2023-04-09T02:44:56.675Z,20.46
2023-04-09T02:45:56.832Z,20.45
2023-04-09T02:46:56.817Z,20.45
2023-04-09T02:47:56.897Z,20.44
2023-04-09T02:48:56.876Z,20.45
2023-04-09T02:49:56.973Z,20.45
2023-04-09T02:50:56.993Z,20.45
2023-04-09T02:51:57.023Z,20.45
2023-04-09T02:52:57.088Z,20.45
2023-04-09T02:53:57.637Z,20.44
2023-04-09T02:54:57.169Z,20.44
2023-04-09T02:55:57.303Z,20.44
2023-04-09T02:56:57.270Z,20.44
2023-04-09T02:57:57.333Z,20.44
2023-04-09T02:58:58.061Z,20.44
2023-04-09T02:59:57.409Z,20.43
2023-04-09T03:00:57.452Z,20.43
2023-04-09T03:01:57.557Z,20.43
2023-04-09T03:02:57.603Z,20.43
2023-04-09T03:03:57.688Z,20.43
2023-04-09T03:04:57.632Z,20.44
2023-04-09T03:05:57.741Z,20.43
2023-04-09T03:06:57.780Z,20.43
2023-04-09T03:07:57.822Z,20.42
2023-04-09T03:08:57.955Z,20.43
2023-04-09T03:09:57.908Z,20.42
2023-04-09T03:10:58.045Z,20.43
2023-04-09T03:11:58.054Z,20.42
2023-04-09T03:12:58.061Z,20.42
2023-04-09T03:13:58.148Z,20.42
2023-04-09T03:14:58.161Z,20.42
2023-04-09T03:15:58.267Z,20.42
2023-04-09T03:16:58.284Z,20.42
2023-04-09T03:17:58.413Z,20.41
2023-04-09T03:18:58.443Z,20.41
2023-04-09T03:19:58.462Z,20.41
2023-04-09T03:20:58.524Z,20.42
2023-04-09T03:21:58.547Z,20.41
2023-04-09T03:22:58.549Z,20.41
2023-04-09T03:23:58.623Z,20.41
2023-04-09T03:24:58.691Z,20.40
2023-04-09T03:25:58.720Z,20.41
2023-04-09T03:26:58.721Z,20.40
2023-04-09T03:27:58.776Z,20.40
2023-04-09T03:28:58.831Z,20.40
2023-04-09T03:29:58.859Z,20.39
2023-04-09T03:30:58.955Z,20.39
2023-04-09T03:31:58.937Z,20.39
2023-04-09T03:32:59.057Z,20.39
2023-04-09T03:33:59.075Z,20.39
2023-04-09T03:34:59.147Z,20.40
2023-04-09T03:35:59.238Z,20.39
2023-04-09T03:36:59.239Z,20.39
2023-04-09T03:37:59.242Z,20.39
2023-04-09T03:38:59.324Z,20.38
2023-04-09T03:39:59.392Z,20.38
2023-04-09T03:40:59.421Z,20.38
2023-04-09T03:41:59.497Z,20.38
2023-04-09T03:42:59.498Z,20.38
2023-04-09T03:43:59.563Z,20.38
2023-04-09T03:44:59.605Z,20.38
2023-04-09T03:45:59.665Z,20.38
2023-04-09T03:46:59.809Z,20.38
2023-04-09T03:47:59.753Z,20.37
2023-04-09T03:48:59.768Z,20.38
2023-04-09T03:49:59.843Z,20.37
2023-04-09T03:50:59.910Z,20.37
2023-04-09T03:51:59.929Z,20.37
2023-04-09T03:52:59.981Z,20.36
2023-04-09T03:54:00.036Z,20.37
2023-04-09T03:55:00.111Z,20.37
2023-04-09T03:56:00.204Z,20.38
2023-04-09T03:57:00.155Z,20.37
2023-04-09T03:58:00.222Z,20.37
2023-04-09T03:59:00.260Z,20.36
2023-04-09T04:00:00.337Z,20.36
2023-04-09T04:01:00.408Z,20.37
2023-04-09T04:02:00.474Z,20.37
2023-04-09T04:03:00.629Z,20.36
2023-04-09T04:04:00.666Z,20.36
2023-04-09T04:05:00.544Z,20.35
2023-04-09T04:06:00.595Z,20.35
2023-04-09T04:07:00.645Z,20.36
2023-04-09T04:08:00.733Z,20.35
2023-04-09T04:09:00.788Z,20.35
2023-04-09T04:10:00.832Z,20.35
2023-04-09T04:11:00.894Z,20.35
2023-04-09T04:12:00.960Z,20.35
2023-04-09T04:13:01.033Z,20.35
2023-04-09T04:14:01.043Z,20.35
2023-04-09T04:15:01.110Z,20.35
2023-04-09T04:16:01.210Z,20.34
2023-04-09T04:17:01.220Z,20.35
2023-04-09T04:18:01.293Z,20.34
2023-04-09T04:19:01.347Z,20.34
2023-04-09T04:20:01.415Z,20.34
2023-04-09T04:21:01.436Z,20.35
2023-04-09T04:22:01.495Z,20.34
2023-04-09T04:23:01.607Z,20.35
2023-04-09T04:24:01.656Z,20.34
2023-04-09T04:25:01.753Z,20.34
2023-04-09T04:26:01.730Z,20.33
2023-04-09T04:27:01.795Z,20.34
2023-04-09T04:28:01.818Z,20.34
2023-04-09T04:29:01.904Z,20.34
2023-04-09T04:30:01.935Z,20.34
2023-04-09T04:31:01.980Z,20.34
2023-04-09T04:32:02.105Z,20.33
2023-04-09T04:33:02.121Z,20.34
2023-04-09T04:34:02.305Z,20.34
2023-04-09T04:35:02.156Z,20.34
2023-04-09T04:36:02.244Z,20.34
2023-04-09T04:37:02.338Z,20.33
2023-04-09T04:38:02.375Z,20.33
2023-04-09T04:39:02.403Z,20.34
2023-04-09T04:40:02.451Z,20.33
2023-04-09T04:41:02.481Z,20.33
2023-04-09T04:42:02.541Z,20.33
2023-04-09T04:43:02.557Z,20.32
2023-04-09T04:44:02.641Z,20.33
2023-04-09T04:45:02.704Z,20.33
2023-04-09T04:46:02.735Z,20.33
2023-04-09T04:47:02.733Z,20.32
2023-04-09T04:48:02.865Z,20.33
2023-04-09T04:49:02.876Z,20.32
2023-04-09T04:50:02.961Z,20.32
2023-04-09T04:51:02.978Z,20.33
2023-04-09T04:52:03.058Z,20.33
2023-04-09T04:53:03.115Z,20.32
2023-04-09T04:54:03.205Z,20.32
2023-04-09T04:55:03.250Z,20.32
2023-04-09T04:56:03.275Z,20.32
2023-04-09T04:57:03.314Z,20.32
2023-04-09T04:58:03.353Z,20.32
2023-04-09T04:59:03.432Z,20.32
2023-04-09T05:00:03.514Z,20.32
2023-04-09T05:01:04.210Z,20.31
2023-04-09T05:02:03.640Z,20.32
2023-04-09T05:03:03.747Z,20.32
2023-04-09T05:04:03.771Z,20.32
2023-04-09T05:05:03.731Z,20.32
2023-04-09T05:06:03.818Z,20.31
2023-04-09T05:07:03.950Z,20.32
2023-04-09T05:08:03.890Z,20.31
2023-04-09T05:09:04.018Z,20.31
2023-04-09T05:10:03.991Z,20.31
2023-04-09T05:11:04.082Z,20.31
2023-04-09T05:12:04.140Z,20.31
2023-04-09T05:13:04.200Z,20.31
2023-04-09T05:14:04.251Z,20.31
2023-04-09T05:15:05.359Z,20.31
2023-04-09T05:16:04.405Z,20.32
2023-04-09T05:17:04.433Z,20.31
2023-04-09T05:18:04.446Z,20.31
2023-04-09T05:19:04.513Z,20.31
2023-04-09T05:20:04.532Z,20.31
2023-04-09T05:21:04.596Z,20.31
2023-04-09T05:22:04.683Z,20.31
2023-04-09T05:23:04.715Z,20.31
2023-04-09T05:24:04.780Z,20.31
2023-04-09T05:25:04.824Z,20.30
2023-04-09T05:26:04.926Z,20.31
2023-04-09T05:27:04.908Z,20.31
2023-04-09T05:28:04.962Z,20.31
2023-04-09T05:29:05.034Z,20.30
2023-04-09T05:30:05.185Z,20.31
2023-04-09T05:31:05.210Z,20.30
2023-04-09T05:32:05.164Z,20.30
2023-04-09T05:33:05.284Z,20.31
2023-04-09T05:34:05.304Z,20.30
2023-04-09T05:35:05.328Z,20.30
2023-04-09T05:36:05.471Z,20.30
2023-04-09T05:37:05.456Z,20.31
2023-04-09T05:38:05.486Z,20.30
2023-04-09T05:39:05.560Z,20.30
2023-04-09T05:40:05.622Z,20.31
2023-04-09T05:41:05.640Z,20.30
2023-04-09T05:42:05.683Z,20.30
2023-04-09T05:43:05.713Z,20.30
2023-04-09T05:44:05.795Z,20.30
2023-04-09T05:45:05.818Z,20.30
2023-04-09T05:46:05.919Z,20.30
2023-04-09T05:47:05.899Z,20.30
2023-04-09T05:48:06.062Z,20.29
2023-04-09T05:49:06.001Z,20.30
2023-04-09T05:50:06.047Z,20.29
2023-04-09T05:51:06.161Z,20.30
2023-04-09T05:52:06.208Z,20.30
2023-04-09T05:53:06.224Z,20.29
2023-04-09T05:54:06.305Z,20.29
2023-04-09T05:55:06.305Z,20.30
2023-04-09T05:56:06.388Z,20.29
2023-04-09T05:57:06.454Z,20.29
2023-04-09T05:58:06.465Z,20.29
2023-04-09T05:59:06.516Z,20.29
2023-04-09T06:00:06.568Z,20.29
2023-04-09T06:01:07.143Z,20.29
2023-04-09T06:02:06.766Z,20.30
2023-04-09T06:03:06.799Z,20.30
2023-04-09T06:04:06.924Z,20.29
2023-04-09T06:05:06.806Z,20.30
2023-04-09T06:06:06.873Z,20.30
2023-04-09T06:07:06.887Z,20.29
2023-04-09T06:08:06.945Z,20.30
2023-04-09T06:09:07.013Z,20.29
2023-04-09T06:10:07.039Z,20.30
2023-04-09T06:11:07.083Z,20.30
2023-04-09T06:12:07.143Z,20.30
2023-04-09T06:13:07.214Z,20.30
2023-04-09T06:14:07.228Z,20.30
2023-04-09T06:15:07.228Z,20.30
2023-04-09T06:16:07.325Z,20.30
2023-04-09T06:17:07.313Z,20.30
2023-04-09T06:18:07.461Z,20.29
2023-04-09T06:19:07.382Z,20.30
2023-04-09T06:20:07.450Z,20.30
2023-04-09T06:21:07.439Z,20.30
2023-04-09T06:22:07.472Z,20.29
2023-04-09T06:23:07.537Z,20.30
2023-04-09T06:24:07.557Z,20.29
2023-04-09T06:25:07.567Z,20.29
2023-04-09T06:26:07.661Z,20.29
2023-04-09T06:27:07.659Z,20.30
2023-04-09T06:28:07.707Z,20.29
2023-04-09T06:29:07.772Z,20.29
2023-04-09T06:30:07.780Z,20.28
2023-04-09T06:31:07.837Z,20.30
2023-04-09T06:32:07.815Z,20.29
2023-04-09T06:33:07.923Z,20.28
2023-04-09T06:34:07.908Z,20.29
2023-04-09T06:35:09.797Z,20.29
2023-04-09T06:36:07.998Z,20.29
2023-04-09T06:37:07.916Z,20.29
2023-04-09T06:38:07.986Z,20.29
2023-04-09T06:39:07.951Z,20.29
2023-04-09T06:40:08.901Z,20.29
2023-04-09T06:41:07.890Z,20.29
2023-04-09T06:42:07.906Z,20.29
2023-04-09T06:43:08.693Z,20.29
2023-04-09T06:44:08.760Z,20.29
2023-04-09T06:45:07.949Z,20.30
2023-04-09T06:46:07.893Z,20.30
2023-04-09T06:47:07.843Z,20.30
2023-04-09T06:48:07.876Z,20.30
2023-04-09T06:49:07.913Z,20.29
2023-04-09T06:50:07.887Z,20.30
2023-04-09T06:51:07.862Z,20.30
2023-04-09T06:52:07.907Z,20.30
2023-04-09T06:53:07.813Z,20.31
2023-04-09T06:54:07.807Z,20.31
2023-04-09T06:55:07.837Z,20.31
2023-04-09T06:56:07.793Z,20.31
2023-04-09T06:57:07.790Z,20.31
2023-04-09T06:58:07.929Z,20.31
2023-04-09T06:59:07.809Z,20.32
2023-04-09T07:00:07.819Z,20.32
2023-04-09T07:01:07.772Z,20.32
2023-04-09T07:02:07.915Z,20.32
2023-04-09T07:03:07.836Z,20.32
2023-04-09T07:04:07.851Z,20.32
2023-04-09T07:05:07.761Z,20.32
2023-04-09T07:06:07.719Z,20.33
2023-04-09T07:07:07.747Z,20.32
2023-04-09T07:08:07.765Z,20.32
2023-04-09T07:09:07.792Z,20.33
2023-04-09T07:10:07.804Z,20.33
2023-04-09T07:11:07.841Z,20.33
2023-04-09T07:12:07.949Z,20.34
2023-04-09T07:13:07.925Z,20.33
2023-04-09T07:14:07.957Z,20.34
2023-04-09T07:15:08.206Z,20.34
2023-04-09T07:16:08.037Z,20.34
2023-04-09T07:17:08.296Z,20.35
2023-04-09T07:18:08.118Z,20.34
2023-04-09T07:19:14.720Z,20.35
2023-04-09T07:20:08.136Z,20.34
2023-04-09T07:21:08.097Z,20.34
2023-04-09T07:22:08.066Z,20.35
2023-04-09T07:23:08.084Z,20.35
2023-04-09T07:24:08.069Z,20.34
2023-04-09T07:25:08.041Z,20.35
2023-04-09T07:26:08.050Z,20.36
2023-04-09T07:27:08.051Z,20.36
2023-04-09T07:28:08.024Z,20.36
2023-04-09T07:29:08.042Z,20.36
2023-04-09T07:30:08.740Z,20.36
2023-04-09T07:31:08.024Z,20.37
2023-04-09T07:32:08.058Z,20.38
2023-04-09T07:33:08.102Z,20.38
2023-04-09T07:34:08.035Z,20.38
2023-04-09T07:35:07.979Z,20.40
2023-04-09T07:36:08.009Z,20.40
2023-04-09T07:37:07.985Z,20.41
2023-04-09T07:38:07.968Z,20.41
2023-04-09T07:39:07.979Z,20.42
2023-04-09T07:40:07.951Z,20.42
2023-04-09T07:41:07.971Z,20.43
2023-04-09T07:42:07.924Z,20.44
2023-04-09T07:43:07.930Z,20.44
2023-04-09T07:44:08.217Z,20.45
2023-04-09T07:45:07.944Z,20.45
2023-04-09T07:46:07.919Z,20.45
2023-04-09T07:47:08.002Z,20.47
2023-04-09T07:48:07.908Z,20.47
2023-04-09T07:49:07.903Z,20.47
2023-04-09T07:50:07.906Z,20.48
2023-04-09T07:51:07.939Z,20.48
2023-04-09T07:52:07.985Z,20.49
2023-04-09T07:53:08.030Z,20.50
2023-04-09T07:54:08.061Z,20.50
2023-04-09T07:55:08.119Z,20.51
2023-04-09T07:56:08.138Z,20.50
2023-04-09T07:57:08.202Z,20.51
2023-04-09T07:58:08.229Z,20.52
2023-04-09T07:59:08.328Z,20.53
2023-04-09T08:00:09.184Z,20.54
2023-04-09T08:01:08.404Z,20.55
2023-04-09T08:02:08.596Z,20.57
2023-04-09T08:03:08.686Z,20.58
2023-04-09T08:04:08.646Z,20.60
2023-04-09T08:05:08.690Z,20.62
2023-04-09T08:06:08.649Z,20.64
2023-04-09T08:07:08.715Z,20.66
2023-04-09T08:08:08.773Z,20.67
2023-04-09T08:09:08.839Z,20.69
2023-04-09T08:10:08.885Z,20.69
2023-04-09T08:11:08.933Z,20.71
2023-04-09T08:12:09.015Z,20.74
2023-04-09T08:13:11.482Z,20.78
2023-04-09T08:14:09.077Z,20.82
2023-04-09T08:15:09.110Z,20.87
2023-04-09T08:16:09.095Z,20.92
2023-04-09T08:17:09.029Z,20.94
2023-04-09T08:18:09.068Z,20.94
2023-04-09T08:19:09.048Z,20.97
2023-04-09T08:20:09.012Z,21.01
2023-04-09T08:21:09.025Z,21.05
2023-04-09T08:22:09.017Z,21.09
2023-04-09T08:23:09.048Z,21.12
2023-04-09T08:24:09.016Z,21.14
2023-04-09T08:25:09.020Z,21.16
2023-04-09T08:26:09.008Z,21.18
2023-04-09T08:27:08.996Z,21.21
2023-04-09T08:28:08.978Z,21.22
2023-04-09T08:29:08.964Z,21.22
2023-04-09T08:30:08.976Z,21.23
2023-04-09T08:31:08.967Z,21.26
2023-04-09T08:32:08.972Z,21.29
2023-04-09T08:33:09.004Z,21.33
2023-04-09T08:34:08.924Z,21.37
2023-04-09T08:35:08.957Z,21.39
2023-04-09T08:36:08.949Z,21.41
2023-04-09T08:37:08.943Z,21.43
2023-04-09T08:38:08.911Z,21.45
2023-04-09T08:39:08.920Z,21.48
2023-04-09T08:40:08.901Z,21.49
2023-04-09T08:41:08.911Z,21.50
2023-04-09T08:42:08.880Z,21.52
2023-04-09T08:43:08.870Z,21.53
2023-04-09T08:44:08.886Z,21.55
2023-04-09T08:45:08.883Z,21.57
2023-04-09T08:46:08.900Z,21.58
2023-04-09T08:47:08.903Z,21.60
2023-04-09T08:48:08.931Z,21.60
2023-04-09T08:49:08.919Z,21.61
2023-04-09T08:50:08.822Z,21.62
2023-04-09T08:51:08.832Z,21.63
2023-04-09T08:52:08.833Z,21.64
2023-04-09T08:53:08.853Z,21.65
2023-04-09T08:54:08.891Z,21.66
2023-04-09T08:55:08.931Z,21.67
2023-04-09T08:56:08.795Z,21.68
2023-04-09T08:57:08.780Z,21.69
2023-04-09T08:58:08.885Z,21.69
2023-04-09T08:59:08.799Z,21.70
2023-04-09T09:00:08.786Z,21.71
2023-04-09T09:01:08.824Z,21.71
2023-04-09T09:02:08.887Z,21.71
2023-04-09T09:03:08.880Z,21.70
2023-04-09T09:04:08.825Z,21.69
2023-04-09T09:05:08.750Z,21.69
2023-04-09T09:06:08.781Z,21.69
2023-04-09T09:07:08.731Z,21.69
2023-04-09T09:08:08.689Z,21.69
2023-04-09T09:09:08.726Z,21.71
2023-04-09T09:10:08.698Z,21.72
2023-04-09T09:11:08.706Z,21.72
2023-04-09T09:12:08.715Z,21.72
2023-04-09T09:13:08.689Z,21.72
2023-04-09T09:14:08.670Z,21.72
2023-04-09T09:15:08.672Z,21.73
2023-04-09T09:16:08.686Z,21.72
2023-04-09T09:17:08.777Z,21.72
2023-04-09T09:18:08.695Z,21.72
2023-04-09T09:19:08.628Z,21.71
2023-04-09T09:20:08.616Z,21.70
2023-04-09T09:21:08.624Z,21.69
2023-04-09T09:22:08.646Z,21.68
2023-04-09T09:23:08.607Z,21.67
2023-04-09T09:24:08.581Z,21.66
2023-04-09T09:25:08.601Z,21.65
2023-04-09T09:26:08.605Z,21.62
2023-04-09T09:27:08.589Z,21.62
2023-04-09T09:28:08.583Z,21.61
2023-04-09T09:29:08.553Z,21.61
2023-04-09T09:30:08.571Z,21.60
2023-04-09T09:31:09.299Z,21.60
2023-04-09T09:32:08.556Z,21.60
2023-04-09T09:33:08.534Z,21.60
2023-04-09T09:34:08.550Z,21.59
2023-04-09T09:35:08.612Z,21.58
2023-04-09T09:36:08.580Z,21.58
2023-04-09T09:37:09.152Z,21.57
2023-04-09T09:38:08.532Z,21.57
2023-04-09T09:39:08.494Z,21.56
2023-04-09T09:40:08.551Z,21.57
2023-04-09T09:41:08.500Z,21.56
2023-04-09T09:42:08.536Z,21.56
2023-04-09T09:43:08.482Z,21.56
2023-04-09T09:44:08.498Z,21.55
2023-04-09T09:45:08.504Z,21.53
2023-04-09T09:46:08.492Z,21.53
2023-04-09T09:47:08.501Z,21.52
2023-04-09T09:48:08.512Z,21.52
2023-04-09T09:49:08.437Z,21.51
2023-04-09T09:50:08.445Z,21.51
2023-04-09T09:51:08.489Z,21.50
2023-04-09T09:52:08.452Z,21.51
2023-04-09T09:53:08.422Z,21.50
2023-04-09T09:54:08.398Z,21.50
2023-04-09T09:55:08.424Z,21.50
2023-04-09T09:56:08.414Z,21.50
2023-04-09T09:57:08.402Z,21.50
2023-04-09T09:58:09.249Z,21.50
2023-04-09T09:59:08.378Z,21.49
2023-04-09T10:00:08.408Z,21.49
2023-04-09T10:01:08.434Z,21.50
2023-04-09T10:02:08.428Z,21.50
2023-04-09T10:03:08.452Z,21.51
2023-04-09T10:04:08.390Z,21.51
2023-04-09T10:05:08.336Z,21.51
2023-04-09T10:06:08.363Z,21.51
2023-04-09T10:07:08.361Z,21.51
2023-04-09T10:08:08.345Z,21.52
2023-04-09T10:09:09.330Z,21.52
2023-04-09T10:10:08.315Z,21.53
2023-04-09T10:11:08.294Z,21.53
2023-04-09T10:12:08.309Z,21.53
2023-04-09T10:13:08.309Z,21.53
2023-04-09T10:14:08.293Z,21.53
2023-04-09T10:15:08.368Z,21.54
2023-04-09T10:16:08.304Z,21.54
2023-04-09T10:17:08.307Z,21.54
2023-04-09T10:18:08.269Z,21.54
2023-04-09T10:19:08.278Z,21.54
2023-04-09T10:20:08.259Z,21.55
2023-04-09T10:21:08.229Z,21.55
2023-04-09T10:22:08.237Z,21.55
2023-04-09T10:23:08.206Z,21.55
2023-04-09T10:24:08.239Z,21.54
2023-04-09T10:25:08.202Z,21.55
2023-04-09T10:26:08.193Z,21.55
2023-04-09T10:27:08.178Z,21.54
2023-04-09T10:28:08.198Z,21.55
2023-04-09T10:29:08.277Z,21.55
2023-04-09T10:30:08.228Z,21.55
2023-04-09T10:31:08.171Z,21.55
2023-04-09T10:32:08.152Z,21.55
2023-04-09T10:33:08.822Z,21.54
2023-04-09T10:34:10.300Z,21.55
2023-04-09T10:35:08.168Z,21.55
2023-04-09T10:36:08.158Z,21.53
2023-04-09T10:37:08.117Z,21.52
2023-04-09T10:38:08.120Z,21.50
2023-04-09T10:39:08.098Z,21.51
2023-04-09T10:40:10.642Z,21.50
2023-04-09T10:41:08.321Z,21.51
2023-04-09T10:42:08.297Z,21.51
2023-04-09T10:43:08.344Z,21.52
2023-04-09T10:44:08.334Z,21.51
2023-04-09T10:45:08.389Z,21.52
2023-04-09T10:46:08.355Z,21.52
2023-04-09T10:47:08.327Z,21.53
2023-04-09T10:48:08.398Z,21.54
2023-04-09T10:49:08.317Z,21.54
2023-04-09T10:50:08.327Z,21.55
2023-04-09T10:51:08.316Z,21.55
2023-04-09T10:52:10.889Z,21.55
2023-04-09T10:53:08.306Z,21.55
2023-04-09T10:54:08.321Z,21.54
2023-04-09T10:55:08.303Z,21.55
2023-04-09T10:56:08.298Z,21.55
2023-04-09T10:57:08.313Z,21.56
2023-04-09T10:58:11.363Z,21.56
2023-04-09T10:59:08.241Z,21.55
2023-04-09T11:00:08.272Z,21.54
2023-04-09T11:01:08.789Z,21.54
2023-04-09T11:02:08.315Z,21.53
2023-04-09T11:03:08.490Z,21.53
2023-04-09T11:04:10.178Z,21.53
2023-04-09T11:05:08.309Z,21.53
2023-04-09T11:06:08.292Z,21.52
2023-04-09T11:07:08.308Z,21.52
2023-04-09T11:08:08.283Z,21.52
2023-04-09T11:09:08.285Z,21.51
2023-04-09T11:10:08.254Z,21.52
2023-04-09T11:11:08.286Z,21.52
2023-04-09T11:12:08.272Z,21.53
2023-04-09T11:13:08.299Z,21.52
2023-04-09T11:14:08.279Z,21.53
2023-04-09T11:15:08.277Z,21.52
2023-04-09T11:16:08.286Z,21.52
2023-04-09T11:17:08.284Z,21.52
2023-04-09T11:18:08.266Z,21.53
2023-04-09T11:19:08.269Z,21.53
2023-04-09T11:20:08.271Z,21.53
2023-04-09T11:21:08.243Z,21.52
2023-04-09T11:22:08.220Z,21.51
2023-04-09T11:23:08.275Z,21.51
2023-04-09T11:24:08.213Z,21.51
2023-04-09T11:25:08.262Z,21.51
2023-04-09T11:26:08.249Z,21.49
2023-04-09T11:27:08.254Z,21.50
2023-04-09T11:28:08.211Z,21.49
2023-04-09T11:29:08.234Z,21.49
2023-04-09T11:30:08.219Z,21.48
2023-04-09T11:31:08.306Z,21.49
2023-04-09T11:32:08.251Z,21.47
2023-04-09T11:33:08.286Z,21.48
2023-04-09T11:34:08.229Z,21.48
2023-04-09T11:35:08.307Z,21.49
2023-04-09T11:36:08.313Z,21.48
2023-04-09T11:37:08.214Z,21.48
2023-04-09T11:38:08.223Z,21.49
2023-04-09T11:39:08.218Z,21.48
2023-04-09T11:40:08.237Z,21.49
2023-04-09T11:41:08.252Z,21.48
2023-04-09T11:42:08.228Z,21.49
2023-04-09T11:43:08.226Z,21.49
2023-04-09T11:44:08.236Z,21.50
2023-04-09T11:45:08.217Z,21.50
2023-04-09T11:46:08.244Z,21.49
2023-04-09T11:47:08.261Z,21.51
2023-04-09T11:48:08.231Z,21.51
2023-04-09T11:49:08.374Z,21.50
2023-04-09T11:50:08.222Z,21.50
2023-04-09T11:51:08.235Z,21.49
2023-04-09T11:52:08.222Z,21.49
2023-04-09T11:53:09.323Z,21.49
2023-04-09T11:54:08.252Z,21.49
2023-04-09T11:55:08.298Z,21.49
2023-04-09T11:56:08.225Z,21.49
2023-04-09T11:57:08.222Z,21.48
2023-04-09T11:58:08.245Z,21.48
2023-04-09T11:59:08.251Z,21.47
2023-04-09T12:00:08.227Z,21.47
2023-04-09T12:01:08.284Z,21.47
2023-04-09T12:02:08.334Z,21.46
2023-04-09T12:03:08.662Z,21.46
2023-04-09T12:04:08.630Z,21.47
2023-04-09T12:05:08.299Z,21.46
2023-04-09T12:06:08.237Z,21.46
2023-04-09T12:07:08.255Z,21.47
2023-04-09T12:08:08.281Z,21.47
2023-04-09T12:09:08.261Z,21.47
2023-04-09T12:10:08.304Z,21.47
2023-04-09T12:11:08.255Z,21.47
2023-04-09T12:12:08.238Z,21.47
2023-04-09T12:13:08.303Z,21.47
2023-04-09T12:14:08.238Z,21.47
2023-04-09T12:15:08.263Z,21.46
2023-04-09T12:16:08.277Z,21.47
2023-04-09T12:17:08.236Z,21.46
2023-04-09T12:18:08.272Z,21.45
2023-04-09T12:19:08.269Z,21.45
2023-04-09T12:20:08.374Z,21.45
2023-04-09T12:21:08.303Z,21.45
2023-04-09T12:22:08.232Z,21.44
2023-04-09T12:23:08.263Z,21.45
2023-04-09T12:24:08.281Z,21.44
2023-04-09T12:25:08.229Z,21.44
2023-04-09T12:26:08.296Z,21.43
2023-04-09T12:27:08.406Z,21.42
2023-04-09T12:28:08.341Z,21.42
2023-04-09T12:29:08.334Z,21.42
2023-04-09T12:30:08.400Z,21.42
2023-04-09T12:31:08.340Z,21.42
2023-04-09T12:32:08.376Z,21.42
2023-04-09T12:33:10.748Z,21.41
2023-04-09T12:34:08.369Z,21.41
2023-04-09T12:35:08.436Z,21.41
2023-04-09T12:36:08.454Z,21.41
2023-04-09T12:37:08.412Z,21.41
2023-04-09T12:38:08.400Z,21.40
2023-04-09T12:39:08.390Z,21.40
2023-04-09T12:40:08.418Z,21.40
2023-04-09T12:41:08.411Z,21.40
2023-04-09T12:42:08.406Z,21.42
2023-04-09T12:43:08.422Z,21.42
2023-04-09T12:44:08.404Z,21.42
2023-04-09T12:45:08.433Z,21.42
2023-04-09T12:46:08.493Z,21.42
2023-04-09T12:47:08.432Z,21.42
2023-04-09T12:48:08.556Z,21.44
2023-04-09T12:49:08.449Z,21.44
2023-04-09T12:50:08.428Z,21.46
2023-04-09T12:51:08.426Z,21.46
2023-04-09T12:52:08.431Z,21.47
2023-04-09T12:53:08.452Z,21.48